Terminal Aerodrome Forecast
Issued by NWS

Home | Current Version | Previous Version | Text Only | Print | Product List | Glossary On
Versions: 1 2 3 4 5 6 7 8 9 10 11 12 13 14 15 16 17 18
000
FTUS44 KMAF 242321
TAFPEQ
TAF
KPEQ 242321Z 2500/2524 22011KT P6SM BKN250
     FM250300 17006KT P6SM SCT250
     FM251200 26010KT P6SM FEW250=

USA.gov is the U.S. government's official web portal to all federal, state and local government web resources and services.